createdAt,value
2023-01-11T00:00:53.767Z,4.12
2023-01-11T00:01:56.897Z,3.96
2023-01-11T00:03:02.428Z,4.23
2023-01-11T00:04:05.380Z,3.20
2023-01-11T00:05:08.984Z,3.87
2023-01-11T00:06:12.050Z,4.13
2023-01-11T00:07:14.871Z,3.66
2023-01-11T00:08:18.744Z,3.83
2023-01-11T00:09:22.125Z,3.62
2023-01-11T00:10:25.148Z,3.91
2023-01-11T00:11:28.093Z,2.98
2023-01-11T00:12:31.373Z,3.24
2023-01-11T00:13:34.530Z,3.72
2023-01-11T00:14:37.499Z,3.81
2023-01-11T00:15:40.603Z,4.18
2023-01-11T00:16:43.763Z,3.79
2023-01-11T00:17:46.796Z,3.25
2023-01-11T00:18:49.889Z,3.93
2023-01-11T00:19:52.944Z,3.86
2023-01-11T00:20:56.092Z,3.83
2023-01-11T00:21:59.118Z,3.52
2023-01-11T00:23:02.185Z,3.88
2023-01-11T00:24:05.755Z,3.47
2023-01-11T00:25:09.294Z,4.16
2023-01-11T00:26:13.407Z,4.03
2023-01-11T00:27:16.408Z,3.83
2023-01-11T00:28:19.763Z,4.12
2023-01-11T00:29:22.909Z,3.79
2023-01-11T00:30:25.939Z,3.67
2023-01-11T00:31:29.150Z,3.93
2023-01-11T00:32:32.219Z,4.12
2023-01-11T00:33:35.177Z,3.45
2023-01-11T00:34:38.125Z,4.12
2023-01-11T00:35:41.036Z,3.76
2023-01-11T00:36:44.073Z,3.79
2023-01-11T00:37:46.983Z,3.79
2023-01-11T00:38:56.116Z,3.74
2023-01-11T00:39:59.108Z,3.69
2023-01-11T00:41:04.101Z,4.02
2023-01-11T00:42:28.139Z,3.84
2023-01-11T00:43:49.637Z,3.54
2023-01-11T00:45:11.266Z,4.07
2023-01-11T00:46:32.688Z,3.01
2023-01-11T00:47:54.069Z,3.53
2023-01-11T00:48:57.010Z,3.28
2023-01-11T00:49:59.946Z,3.34
2023-01-11T00:51:03.130Z,3.83
2023-01-11T00:52:08.453Z,3.60
2023-01-11T00:53:11.611Z,3.78
2023-01-11T00:54:14.643Z,3.67
2023-01-11T00:55:17.613Z,3.63
2023-01-11T00:56:20.640Z,3.46
2023-01-11T00:57:23.839Z,4.05
2023-01-11T00:58:26.755Z,4.42
2023-01-11T00:59:29.689Z,4.12
2023-01-11T01:00:32.755Z,3.99
2023-01-11T01:01:35.878Z,3.46
2023-01-11T01:02:38.879Z,3.58
2023-01-11T01:03:41.912Z,3.33
2023-01-11T01:04:45.602Z,3.46
2023-01-11T01:05:48.673Z,2.85
2023-01-11T01:06:51.887Z,3.17
2023-01-11T01:07:54.959Z,3.41
2023-01-11T01:08:58.116Z,3.80
2023-01-11T01:10:01.282Z,3.22
2023-01-11T01:11:04.310Z,3.33
2023-01-11T01:12:08.681Z,3.39
2023-01-11T01:13:29.791Z,4.07
2023-01-11T01:14:33.481Z,4.33
2023-01-11T01:15:36.483Z,4.16
2023-01-11T01:16:39.521Z,4.11
2023-01-11T01:17:42.468Z,5.14
2023-01-11T01:18:45.457Z,5.91
2023-01-11T01:19:48.498Z,6.09
2023-01-11T01:20:51.658Z,5.90
2023-01-11T01:21:56.533Z,5.34
2023-01-11T01:22:59.767Z,7.00
2023-01-11T01:24:03.028Z,5.92
2023-01-11T01:25:06.171Z,6.61
2023-01-11T01:26:09.417Z,5.62
2023-01-11T01:27:14.376Z,5.97
2023-01-11T01:28:18.361Z,5.56
2023-01-11T01:29:21.558Z,5.30
2023-01-11T01:30:24.551Z,5.37
2023-01-11T01:31:27.836Z,5.17
2023-01-11T01:32:30.841Z,4.26
2023-01-11T01:33:34.195Z,4.89
2023-01-11T01:34:37.356Z,5.73
2023-01-11T01:35:40.295Z,6.51
2023-01-11T01:36:43.468Z,5.79
2023-01-11T01:37:46.539Z,7.21
2023-01-11T01:38:49.496Z,6.58
2023-01-11T01:39:52.551Z,6.84
2023-01-11T01:40:56.426Z,5.71
2023-01-11T01:41:59.794Z,5.18
2023-01-11T01:43:02.758Z,4.91
2023-01-11T01:44:25.531Z,4.36
2023-01-11T01:45:28.605Z,3.77
2023-01-11T01:46:33.610Z,4.27
2023-01-11T01:47:40.165Z,4.00
2023-01-11T01:48:46.326Z,4.67
2023-01-11T01:49:49.691Z,5.10
2023-01-11T01:50:56.301Z,4.49
2023-01-11T01:52:00.159Z,5.25
2023-01-11T01:53:06.769Z,4.45
2023-01-11T01:54:13.395Z,4.10
2023-01-11T01:55:22.751Z,4.03
2023-01-11T01:56:32.316Z,4.57
2023-01-11T01:57:38.868Z,4.06
2023-01-11T01:58:45.539Z,4.23
2023-01-11T01:59:52.149Z,3.46
2023-01-11T02:00:55.490Z,3.58
2023-01-11T02:02:00.610Z,2.84
2023-01-11T02:03:03.883Z,3.33
2023-01-11T02:04:19.359Z,2.97
2023-01-11T02:05:22.409Z,3.58
2023-01-11T02:06:25.377Z,3.41
2023-01-11T02:07:34.037Z,3.89
2023-01-11T02:08:40.511Z,3.82
2023-01-11T02:09:52.973Z,3.16
2023-01-11T02:10:56.239Z,3.33
2023-01-11T02:12:00.326Z,3.01
2023-01-11T02:13:09.799Z,2.88
2023-01-11T02:14:16.223Z,3.28
2023-01-11T02:15:22.084Z,3.02
2023-01-11T02:16:25.385Z,3.48
2023-01-11T02:17:28.458Z,3.81
2023-01-11T02:18:31.485Z,3.29
2023-01-11T02:20:08.285Z,3.12
2023-01-11T02:21:17.430Z,2.97
2023-01-11T02:22:32.709Z,2.93
2023-01-11T02:24:00.164Z,2.77
2023-01-11T02:25:09.384Z,3.13
2023-01-11T02:26:32.327Z,2.63
2023-01-11T02:27:48.068Z,2.76
2023-01-11T02:29:06.142Z,2.63
2023-01-11T02:30:21.600Z,2.91
2023-01-11T02:31:33.908Z,2.42
2023-01-11T02:32:45.743Z,3.01
2023-01-11T02:33:58.136Z,2.82
2023-01-11T02:35:10.420Z,2.82
2023-01-11T02:36:16.910Z,3.40
2023-01-11T02:37:38.602Z,2.90
2023-01-11T02:39:03.133Z,3.58
2023-01-11T02:40:27.649Z,3.09
2023-01-11T02:41:36.125Z,3.22
2023-01-11T02:43:13.250Z,2.74
2023-01-11T02:44:38.222Z,2.68
2023-01-11T02:45:47.444Z,3.01
2023-01-11T02:46:53.862Z,2.44
2023-01-11T02:48:03.378Z,2.59
2023-01-11T02:49:36.953Z,2.77
2023-01-11T02:50:49.224Z,2.45
2023-01-11T02:51:58.473Z,2.47
2023-01-11T02:53:07.664Z,2.74
2023-01-11T02:54:12.330Z,2.47
2023-01-11T02:55:18.511Z,3.11
2023-01-11T02:56:28.146Z,3.23
2023-01-11T02:57:33.743Z,2.62
2023-01-11T02:58:40.180Z,2.69
2023-01-11T02:59:45.231Z,2.20
2023-01-11T03:00:48.897Z,2.59
2023-01-11T03:01:54.994Z,2.10
2023-01-11T03:03:15.745Z,2.82
2023-01-11T03:05:38.248Z,2.53
2023-01-11T03:06:41.124Z,2.48
2023-01-11T03:09:13.745Z,2.36
2023-01-11T03:10:38.058Z,2.82
2023-01-11T03:12:20.921Z,2.45
2023-01-11T03:13:42.533Z,2.39
2023-01-11T03:14:52.083Z,2.44
2023-01-11T03:16:08.021Z,2.62
2023-01-11T03:17:26.736Z,2.57
2023-01-11T03:18:33.210Z,2.78
2023-01-11T03:19:48.765Z,2.64
2023-01-11T03:21:07.338Z,2.66
2023-01-11T03:22:13.875Z,3.07
2023-01-11T03:23:23.393Z,2.84
2023-01-11T03:24:42.299Z,2.30
2023-01-11T03:26:16.153Z,2.56
2023-01-11T03:27:31.850Z,2.54
2023-01-11T03:28:41.406Z,2.55
2023-01-11T03:30:05.665Z,2.26
2023-01-11T03:31:24.373Z,2.81
2023-01-11T03:32:36.760Z,2.53
2023-01-11T03:33:52.288Z,2.70
2023-01-11T03:35:02.004Z,3.08
2023-01-11T03:36:17.094Z,3.39
2023-01-11T03:38:40.781Z,2.21
2023-01-11T03:39:47.183Z,2.93
2023-01-11T03:40:53.787Z,2.36
2023-01-11T03:42:00.238Z,2.69
2023-01-11T03:43:12.372Z,3.23
2023-01-11T03:44:18.222Z,3.23
2023-01-11T03:45:21.286Z,2.65
2023-01-11T03:46:28.070Z,2.58
2023-01-11T03:47:33.603Z,3.94
2023-01-11T03:48:40.228Z,3.25
2023-01-11T03:49:58.150Z,2.90
2023-01-11T03:51:03.723Z,3.32
2023-01-11T03:52:11.561Z,3.23
2023-01-11T03:53:17.819Z,2.97
2023-01-11T03:54:23.738Z,2.73
2023-01-11T03:55:29.989Z,2.55
2023-01-11T03:57:06.391Z,2.76
2023-01-11T03:58:09.585Z,2.91
2023-01-11T03:59:12.744Z,2.77
2023-01-11T04:00:16.235Z,2.77
2023-01-11T04:01:19.519Z,2.83
2023-01-11T04:02:25.908Z,2.92
2023-01-11T04:03:29.061Z,2.64
2023-01-11T04:04:32.048Z,2.83
2023-01-11T04:05:36.290Z,2.69
2023-01-11T04:06:39.395Z,2.44
2023-01-11T04:07:42.291Z,3.10
2023-01-11T04:08:45.223Z,2.71
2023-01-11T04:09:48.071Z,2.95
2023-01-11T04:10:51.085Z,2.58
2023-01-11T04:11:54.043Z,3.08
2023-01-11T04:12:56.959Z,2.76
2023-01-11T04:14:00.892Z,2.66
2023-01-11T04:15:04.989Z,3.09
2023-01-11T04:16:08.418Z,2.68
2023-01-11T04:17:11.468Z,2.99
2023-01-11T04:18:14.545Z,3.14
2023-01-11T04:19:17.568Z,3.22
2023-01-11T04:20:20.649Z,2.89
2023-01-11T04:21:23.653Z,2.94
2023-01-11T04:22:26.500Z,3.04
2023-01-11T04:23:30.297Z,2.74
2023-01-11T04:24:33.343Z,2.95
2023-01-11T04:25:36.299Z,2.97
2023-01-11T04:26:39.556Z,2.89
2023-01-11T04:27:42.606Z,3.17
2023-01-11T04:28:45.654Z,3.35
2023-01-11T04:29:48.612Z,3.50
2023-01-11T04:30:51.743Z,3.00
2023-01-11T04:31:54.938Z,2.98
2023-01-11T04:32:58.651Z,3.05
2023-01-11T04:34:01.909Z,2.74
2023-01-11T04:35:05.389Z,2.52
2023-01-11T04:36:10.934Z,2.69
2023-01-11T04:37:13.904Z,2.89
2023-01-11T04:38:16.965Z,2.69
2023-01-11T04:39:20.054Z,2.79
2023-01-11T04:40:23.999Z,2.39
2023-01-11T04:41:45.456Z,2.86
2023-01-11T04:42:48.529Z,2.74
2023-01-11T04:43:54.226Z,3.59
2023-01-11T04:44:57.295Z,3.85
2023-01-11T04:46:00.365Z,3.92
2023-01-11T04:47:03.386Z,4.01
2023-01-11T04:48:06.381Z,3.96
2023-01-11T04:49:09.422Z,3.64
2023-01-11T04:50:13.411Z,3.24
2023-01-11T04:51:16.629Z,2.96
2023-01-11T04:52:20.054Z,2.56
2023-01-11T04:53:23.100Z,3.12
2023-01-11T04:54:26.036Z,2.33
2023-01-11T04:55:29.085Z,2.94
2023-01-11T04:56:32.355Z,2.67
2023-01-11T04:57:35.477Z,3.12
2023-01-11T04:58:38.460Z,2.76
2023-01-11T04:59:41.562Z,2.80
2023-01-11T05:00:44.687Z,3.03
2023-01-11T05:01:47.846Z,2.69
2023-01-11T05:02:50.916Z,2.64
2023-01-11T05:03:54.777Z,3.27
2023-01-11T05:04:57.847Z,3.11
2023-01-11T05:06:01.481Z,3.73
2023-01-11T05:07:04.537Z,2.59
2023-01-11T05:08:07.672Z,3.11
2023-01-11T05:09:15.943Z,3.47
2023-01-11T05:10:20.863Z,3.00
2023-01-11T05:11:23.794Z,3.29
2023-01-11T05:12:26.713Z,3.39
2023-01-11T05:13:41.440Z,3.75
2023-01-11T05:14:44.525Z,3.43
2023-01-11T05:15:47.652Z,3.37
2023-01-11T05:16:50.640Z,3.39
2023-01-11T05:17:53.726Z,4.44
2023-01-11T05:18:58.643Z,4.41
2023-01-11T05:20:01.491Z,4.21
2023-01-11T05:21:05.902Z,3.65
2023-01-11T05:22:09.138Z,3.32
2023-01-11T05:23:12.075Z,4.24
2023-01-11T05:24:16.312Z,3.58
2023-01-11T05:25:19.279Z,3.50
2023-01-11T05:26:26.288Z,3.76
2023-01-11T05:27:29.573Z,4.09
2023-01-11T05:28:32.691Z,4.36
2023-01-11T05:29:35.774Z,4.28
2023-01-11T05:30:38.911Z,3.87
2023-01-11T05:31:42.105Z,3.36
2023-01-11T05:32:45.017Z,3.87
2023-01-11T05:33:48.177Z,3.11
2023-01-11T05:34:51.230Z,4.03
2023-01-11T05:35:59.563Z,4.05
2023-01-11T05:37:02.620Z,3.39
2023-01-11T05:38:05.538Z,3.39
2023-01-11T05:39:10.161Z,3.46
2023-01-11T05:40:13.333Z,3.02
2023-01-11T05:41:17.566Z,3.75
2023-01-11T05:42:21.985Z,3.47
2023-01-11T05:43:25.667Z,3.67
2023-01-11T05:44:46.875Z,3.57
2023-01-11T05:45:49.988Z,3.03
2023-01-11T05:46:53.005Z,3.85
2023-01-11T05:47:56.010Z,3.02
2023-01-11T05:48:59.217Z,3.31
2023-01-11T05:50:02.352Z,3.27
2023-01-11T05:51:05.380Z,3.58
2023-01-11T05:52:08.310Z,3.85
2023-01-11T05:53:11.218Z,3.81
2023-01-11T05:54:14.943Z,4.28
2023-01-11T05:55:17.884Z,4.39
2023-01-11T05:56:20.723Z,4.68
2023-01-11T05:57:23.650Z,4.08
2023-01-11T05:58:27.866Z,4.45
2023-01-11T05:59:32.177Z,3.74
2023-01-11T06:00:35.351Z,3.76
2023-01-11T06:01:38.368Z,3.42
2023-01-11T06:02:41.310Z,3.24
2023-01-11T06:03:44.787Z,3.56
2023-01-11T06:04:47.726Z,3.11
2023-01-11T06:05:51.603Z,3.47
2023-01-11T06:06:54.851Z,3.39
2023-01-11T06:07:57.904Z,3.06
2023-01-11T06:09:00.847Z,2.37
2023-01-11T06:10:04.224Z,2.36
2023-01-11T06:11:07.283Z,2.81
2023-01-11T06:12:10.611Z,2.47
2023-01-11T06:13:29.084Z,2.56
2023-01-11T06:14:32.160Z,2.74
2023-01-11T06:15:35.504Z,2.74
2023-01-11T06:16:38.573Z,2.63
2023-01-11T06:17:41.491Z,2.59
2023-01-11T06:18:46.876Z,2.67
2023-01-11T06:19:49.953Z,2.89
2023-01-11T06:20:54.733Z,2.60
2023-01-11T06:21:57.927Z,2.17
2023-01-11T06:23:00.995Z,2.76
2023-01-11T06:24:04.224Z,2.53
2023-01-11T06:25:07.598Z,2.67
2023-01-11T06:26:13.152Z,2.28
2023-01-11T06:27:17.557Z,2.13
2023-01-11T06:28:20.851Z,2.87
2023-01-11T06:29:23.830Z,2.44
2023-01-11T06:30:26.750Z,2.45
2023-01-11T06:31:29.695Z,2.41
2023-01-11T06:32:32.632Z,2.36
2023-01-11T06:33:36.276Z,2.83
2023-01-11T06:34:39.907Z,2.28
2023-01-11T06:35:43.720Z,2.08
2023-01-11T06:36:46.704Z,2.06
2023-01-11T06:37:49.619Z,2.98
2023-01-11T06:38:52.976Z,2.74
2023-01-11T06:39:55.918Z,2.88
2023-01-11T06:41:00.974Z,2.96
2023-01-11T06:42:04.112Z,2.92
2023-01-11T06:43:08.261Z,2.89
2023-01-11T06:44:11.211Z,2.71
2023-01-11T06:45:14.243Z,3.53
2023-01-11T06:46:18.316Z,3.04
2023-01-11T06:47:21.319Z,3.11
2023-01-11T06:48:25.044Z,3.24
2023-01-11T06:49:28.105Z,3.25
2023-01-11T06:50:31.549Z,2.44
2023-01-11T06:51:34.613Z,2.46
2023-01-11T06:52:37.627Z,2.55
2023-01-11T06:53:42.016Z,2.86
2023-01-11T06:54:44.939Z,2.56
2023-01-11T06:55:51.846Z,2.64
2023-01-11T06:56:54.799Z,2.67
2023-01-11T06:57:57.809Z,2.21
2023-01-11T06:59:00.855Z,2.69
2023-01-11T07:00:04.415Z,2.52
2023-01-11T07:01:07.685Z,2.58
2023-01-11T07:02:11.188Z,2.56
2023-01-11T07:03:14.118Z,2.12
2023-01-11T07:04:18.979Z,2.27
2023-01-11T07:05:22.122Z,2.47
2023-01-11T07:06:25.219Z,2.81
2023-01-11T07:07:28.195Z,2.38
2023-01-11T07:08:31.429Z,2.76
2023-01-11T07:09:34.281Z,2.43
2023-01-11T07:10:37.307Z,2.17
2023-01-11T07:11:40.363Z,2.25
2023-01-11T07:12:43.287Z,2.25
2023-01-11T07:13:46.231Z,2.00
2023-01-11T07:14:49.155Z,2.46
2023-01-11T07:15:53.439Z,2.59
2023-01-11T07:16:56.355Z,2.46
2023-01-11T07:18:00.291Z,2.44
2023-01-11T07:19:03.231Z,2.22
2023-01-11T07:20:07.597Z,2.30
2023-01-11T07:21:10.698Z,2.31
2023-01-11T07:22:15.419Z,2.19
2023-01-11T07:23:18.783Z,2.77
2023-01-11T07:24:23.726Z,2.94
2023-01-11T07:25:28.196Z,3.09
2023-01-11T07:26:32.554Z,2.59
2023-01-11T07:27:35.513Z,2.77
2023-01-11T07:28:38.564Z,2.54
2023-01-11T07:29:41.503Z,2.61
2023-01-11T07:30:57.631Z,2.41
2023-01-11T07:31:49.402Z,2.28
2023-01-11T07:32:52.415Z,2.59
2023-01-11T07:33:55.495Z,2.67
2023-01-11T07:34:58.476Z,2.59
2023-01-11T07:36:03.297Z,3.09
2023-01-11T07:37:08.257Z,2.88
2023-01-11T07:38:13.013Z,2.59
2023-01-11T07:39:15.954Z,2.96
2023-01-11T07:40:19.247Z,2.74
2023-01-11T07:41:40.874Z,2.69
2023-01-11T07:43:06.490Z,2.39
2023-01-11T07:44:10.048Z,2.68
2023-01-11T07:45:13.160Z,2.56
2023-01-11T07:46:16.352Z,3.21
2023-01-11T07:47:19.367Z,3.09
2023-01-11T07:48:27.511Z,2.72
2023-01-11T07:49:31.066Z,3.08
2023-01-11T07:50:34.153Z,2.47
2023-01-11T07:51:37.118Z,2.76
2023-01-11T07:52:48.189Z,2.47
2023-01-11T07:53:51.198Z,2.95
2023-01-11T07:55:12.126Z,2.76
2023-01-11T07:56:15.056Z,2.81
2023-01-11T07:57:18.110Z,3.26
2023-01-11T07:58:21.194Z,2.66
2023-01-11T07:59:24.336Z,2.90
2023-01-11T08:00:27.483Z,2.24
2023-01-11T08:01:30.327Z,3.02
2023-01-11T08:02:33.515Z,2.74
2023-01-11T08:03:36.749Z,2.59
2023-01-11T08:04:39.707Z,2.58
2023-01-11T08:05:42.779Z,2.59
2023-01-11T08:06:45.815Z,3.09
2023-01-11T08:07:49.082Z,3.36
2023-01-11T08:08:52.123Z,4.09
2023-01-11T08:09:55.075Z,3.52
2023-01-11T08:11:16.371Z,3.41
2023-01-11T08:12:37.881Z,3.16
2023-01-11T08:13:59.158Z,2.46
2023-01-11T08:15:02.223Z,2.71
2023-01-11T08:16:05.315Z,2.61
2023-01-11T08:17:11.463Z,3.99
2023-01-11T08:18:14.436Z,4.18
2023-01-11T08:19:17.437Z,4.48
2023-01-11T08:20:20.487Z,3.31
2023-01-11T08:21:23.625Z,3.06
2023-01-11T08:22:26.684Z,2.95
2023-01-11T08:23:30.749Z,2.87
2023-01-11T08:24:36.612Z,3.32
2023-01-11T08:25:39.923Z,2.82
2023-01-11T08:26:43.022Z,2.53
2023-01-11T08:27:45.935Z,2.48
2023-01-11T08:28:48.872Z,2.36
2023-01-11T08:29:51.719Z,2.46
2023-01-11T08:30:54.826Z,2.62
2023-01-11T08:31:58.811Z,3.42
2023-01-11T08:33:02.519Z,3.31
2023-01-11T08:34:05.650Z,3.02
2023-01-11T08:35:08.923Z,3.16
2023-01-11T08:36:12.780Z,2.79
2023-01-11T08:37:15.856Z,2.76
2023-01-11T08:38:18.980Z,2.63
2023-01-11T08:39:22.156Z,3.01
2023-01-11T08:40:25.074Z,2.65
2023-01-11T08:41:28.023Z,2.47
2023-01-11T08:42:32.057Z,2.71
2023-01-11T08:43:35.143Z,3.54
2023-01-11T08:44:38.062Z,2.72
2023-01-11T08:45:41.106Z,3.27
2023-01-11T08:46:44.041Z,2.84
2023-01-11T08:47:48.280Z,2.72
2023-01-11T08:48:53.042Z,2.91
2023-01-11T08:49:56.021Z,3.21
2023-01-11T08:50:59.351Z,2.98
2023-01-11T08:52:02.314Z,2.66
2023-01-11T08:53:05.275Z,2.76
2023-01-11T08:54:13.762Z,2.72
2023-01-11T08:55:16.890Z,2.24
2023-01-11T08:56:19.748Z,2.54
2023-01-11T08:57:22.814Z,2.70
2023-01-11T08:58:25.773Z,2.73
2023-01-11T08:59:28.741Z,2.62
2023-01-11T09:00:31.788Z,2.60
2023-01-11T09:01:34.808Z,2.92
2023-01-11T09:02:37.785Z,2.40
2023-01-11T09:03:40.665Z,2.58
2023-01-11T09:04:43.625Z,2.98
2023-01-11T09:05:46.686Z,3.13
2023-01-11T09:06:49.767Z,3.37
2023-01-11T09:07:56.087Z,3.47
2023-01-11T09:08:59.188Z,3.54
2023-01-11T09:10:02.165Z,2.92
2023-01-11T09:11:07.263Z,2.76
2023-01-11T09:12:10.259Z,2.39
2023-01-11T09:13:13.253Z,2.25
2023-01-11T09:14:16.223Z,2.71
2023-01-11T09:15:19.469Z,2.86
2023-01-11T09:16:22.562Z,2.63
2023-01-11T09:17:25.716Z,2.94
2023-01-11T09:18:28.923Z,2.55
2023-01-11T09:19:32.987Z,2.28
2023-01-11T09:20:35.971Z,2.67
2023-01-11T09:21:38.941Z,2.72
2023-01-11T09:22:52.801Z,3.26
2023-01-11T09:23:56.060Z,3.36
2023-01-11T09:25:00.144Z,3.17
2023-01-11T09:26:03.145Z,2.85
2023-01-11T09:27:06.265Z,3.08
2023-01-11T09:28:09.346Z,2.79
2023-01-11T09:29:13.190Z,3.42
2023-01-11T09:30:19.038Z,2.92
2023-01-11T09:31:22.109Z,3.53
2023-01-11T09:32:25.160Z,2.47
2023-01-11T09:33:28.209Z,3.23
2023-01-11T09:34:31.430Z,3.25
2023-01-11T09:35:35.201Z,2.56
2023-01-11T09:36:39.666Z,2.94
2023-01-11T09:37:50.834Z,3.31
2023-01-11T09:38:55.796Z,3.11
2023-01-11T09:39:59.484Z,3.26
2023-01-11T09:41:20.093Z,3.44
2023-01-11T09:42:34.391Z,3.04
2023-01-11T09:43:43.957Z,2.55
2023-01-11T09:44:53.605Z,3.19
2023-01-11T09:46:01.677Z,3.14
2023-01-11T09:47:20.452Z,2.70
2023-01-11T09:48:31.759Z,2.46
2023-01-11T09:49:41.379Z,2.97
2023-01-11T09:50:47.906Z,2.98
2023-01-11T09:51:51.702Z,2.82
2023-01-11T09:52:58.257Z,3.26
2023-01-11T09:54:04.422Z,2.84
2023-01-11T09:55:14.640Z,2.94
2023-01-11T09:56:28.009Z,2.41
2023-01-11T09:57:40.552Z,2.54
2023-01-11T09:59:05.869Z,2.91
2023-01-11T10:00:39.712Z,3.23
2023-01-11T10:03:34.890Z,2.84
2023-01-11T10:05:10.371Z,3.35
2023-01-11T10:06:22.977Z,2.94
2023-01-11T10:07:47.045Z,2.63
2023-01-11T10:18:28.168Z,3.11
2023-01-11T10:18:34.081Z,2.63
2023-01-11T10:18:50.038Z,2.87
2023-01-11T10:19:40.406Z,3.10
2023-01-11T10:20:45.943Z,2.50
2023-01-11T10:21:54.061Z,2.31
2023-01-11T10:23:04.501Z,2.44
2023-01-11T10:24:21.013Z,2.29
2023-01-11T10:25:26.675Z,2.56
2023-01-11T10:26:35.241Z,2.84
2023-01-11T10:27:40.704Z,2.83
2023-01-11T10:28:51.763Z,3.01
2023-01-11T10:30:06.039Z,2.17
2023-01-11T10:31:14.458Z,2.92
2023-01-11T10:32:41.921Z,3.15
2023-01-11T10:34:06.067Z,3.58
2023-01-11T10:35:43.001Z,2.81
2023-01-11T10:37:10.989Z,2.48
2023-01-11T10:38:48.112Z,2.22
2023-01-11T10:40:43.276Z,2.70
2023-01-11T10:43:13.332Z,2.27
2023-01-11T10:44:21.839Z,2.51
2023-01-11T10:45:28.418Z,2.42
2023-01-11T10:46:34.237Z,2.31
2023-01-11T10:47:40.986Z,2.56
2023-01-11T10:53:54.552Z,3.02
2023-01-11T10:54:59.426Z,2.36
2023-01-11T10:56:14.669Z,2.53
2023-01-11T10:58:52.933Z,2.73
2023-01-11T11:00:05.818Z,2.54
2023-01-11T11:01:33.908Z,2.32
2023-01-11T11:02:49.178Z,2.59
2023-01-11T11:03:55.680Z,2.17
2023-01-11T11:05:14.505Z,2.56
2023-01-11T11:06:26.810Z,2.52
2023-01-11T11:07:56.260Z,2.87
2023-01-11T11:09:20.705Z,2.81
2023-01-11T11:10:33.314Z,2.69
2023-01-11T11:11:40.022Z,2.21
2023-01-11T11:12:49.360Z,2.41
2023-01-11T11:14:01.855Z,2.78
2023-01-11T11:15:18.216Z,2.58
2023-01-11T11:16:27.826Z,2.62
2023-01-11T11:17:36.788Z,2.48
2023-01-11T11:18:44.838Z,2.16
2023-01-11T11:19:48.120Z,2.27
2023-01-11T11:20:51.427Z,2.15
2023-01-11T11:21:55.151Z,2.66
2023-01-11T11:22:58.582Z,2.12
2023-01-11T11:24:08.849Z,2.51
2023-01-11T11:25:33.105Z,2.72
2023-01-11T11:26:40.906Z,2.56
2023-01-11T11:27:52.744Z,2.84
2023-01-11T11:29:01.125Z,2.99
2023-01-11T11:30:04.547Z,2.41
2023-01-11T11:31:08.046Z,2.42
2023-01-11T11:32:14.661Z,2.59
2023-01-11T11:33:21.410Z,2.28
2023-01-11T11:34:27.282Z,2.92
2023-01-11T11:35:33.208Z,2.82
2023-01-11T11:36:44.036Z,2.69
2023-01-11T11:37:47.120Z,3.04
2023-01-11T11:39:11.613Z,2.77
2023-01-11T11:40:33.969Z,3.13
2023-01-11T11:41:52.442Z,2.82
2023-01-11T11:43:20.139Z,3.02
2023-01-11T11:44:25.829Z,2.29
2023-01-11T11:45:29.060Z,2.37
2023-01-11T11:46:32.200Z,2.51
2023-01-11T11:47:35.499Z,2.43
2023-01-11T11:48:38.474Z,2.76
2023-01-11T11:49:41.740Z,2.45
2023-01-11T11:50:46.039Z,2.68
2023-01-11T11:51:50.929Z,2.60
2023-01-11T11:53:03.396Z,2.59
2023-01-11T11:54:06.598Z,3.18
2023-01-11T11:55:11.556Z,3.15
2023-01-11T11:56:30.140Z,3.51
2023-01-11T11:57:36.787Z,2.98
2023-01-11T11:58:42.000Z,2.44
2023-01-11T11:59:48.247Z,2.86
2023-01-11T12:00:52.948Z,3.08
2023-01-11T12:01:59.530Z,2.10
2023-01-11T12:03:21.111Z,2.17
2023-01-11T12:04:39.893Z,2.68
2023-01-11T12:06:03.337Z,2.87
2023-01-11T12:07:19.114Z,2.36
2023-01-11T12:08:26.447Z,2.38
2023-01-11T12:09:33.117Z,2.10
2023-01-11T12:10:36.982Z,2.54
2023-01-11T12:11:41.681Z,2.69
2023-01-11T12:13:02.016Z,2.28
2023-01-11T12:15:33.521Z,3.00
2023-01-11T12:16:42.057Z,2.40
2023-01-11T12:17:45.195Z,3.07
2023-01-11T12:18:48.872Z,3.21
2023-01-11T12:19:51.721Z,2.50
2023-01-11T12:20:55.429Z,2.37
2023-01-11T12:23:29.636Z,2.82
2023-01-11T12:24:33.277Z,2.47
2023-01-11T12:25:57.661Z,2.61
2023-01-11T12:27:19.261Z,2.07
2023-01-11T12:28:54.466Z,2.39
2023-01-11T12:30:01.044Z,2.53
2023-01-11T12:32:57.816Z,2.42
2023-01-11T12:34:22.178Z,2.20
2023-01-11T12:36:03.393Z,2.38
2023-01-11T12:37:19.743Z,2.72
2023-01-11T12:38:32.241Z,2.20
2023-01-11T12:39:53.696Z,2.53
2023-01-11T12:41:12.519Z,2.50
2023-01-11T12:42:47.502Z,2.52
2023-01-11T12:44:05.601Z,2.51
2023-01-11T12:45:36.569Z,3.03
2023-01-11T12:46:49.358Z,3.37
2023-01-11T12:48:14.124Z,2.46
2023-01-11T12:49:26.403Z,2.93
2023-01-11T12:50:35.742Z,2.68
2023-01-11T12:51:59.038Z,2.71
2023-01-11T12:53:32.765Z,2.83
2023-01-11T12:54:57.887Z,2.46
2023-01-11T12:56:24.111Z,2.87
2023-01-11T12:57:33.382Z,2.48
2023-01-11T12:58:43.945Z,2.73
2023-01-11T13:00:16.306Z,2.72
2023-01-11T13:01:35.255Z,2.99
2023-01-11T13:03:16.507Z,3.03
2023-01-11T13:04:29.138Z,2.51
2023-01-11T13:05:50.882Z,2.22
2023-01-11T13:07:12.610Z,2.54
2023-01-11T13:08:22.080Z,2.56
2023-01-11T13:09:34.423Z,2.51
2023-01-11T13:10:55.966Z,2.79
2023-01-11T13:12:18.961Z,3.27
2023-01-11T13:13:28.367Z,2.95
2023-01-11T13:14:40.869Z,3.23
2023-01-11T13:15:53.565Z,3.27
2023-01-11T13:17:16.700Z,2.68
2023-01-11T13:18:35.053Z,2.22
2023-01-11T13:19:44.389Z,2.50
2023-01-11T13:21:02.177Z,2.57
2023-01-11T13:22:08.414Z,2.54
2023-01-11T13:23:15.145Z,3.09
2023-01-11T13:24:23.577Z,2.87
2023-01-11T13:25:33.022Z,3.18
2023-01-11T13:26:39.689Z,2.56
2023-01-11T13:27:43.459Z,3.55
2023-01-11T13:28:52.794Z,2.78
2023-01-11T13:29:58.952Z,3.32
2023-01-11T13:31:04.873Z,3.18
2023-01-11T13:32:29.490Z,3.18
2023-01-11T13:33:34.236Z,2.77
2023-01-11T13:34:43.615Z,2.67
2023-01-11T13:35:53.118Z,3.08
2023-01-11T13:37:08.919Z,3.72
2023-01-11T13:38:35.229Z,3.69
2023-01-11T13:39:41.954Z,3.99
2023-01-11T13:40:48.135Z,3.42
2023-01-11T13:41:54.976Z,3.18
2023-01-11T13:43:01.584Z,3.30
2023-01-11T13:44:13.865Z,2.97
2023-01-11T13:45:29.544Z,3.35
2023-01-11T13:46:44.835Z,2.82
2023-01-11T13:48:00.230Z,2.59
2023-01-11T13:49:16.036Z,2.79
2023-01-11T13:50:46.917Z,3.26
2023-01-11T13:51:53.445Z,3.54
2023-01-11T13:53:25.394Z,3.60
2023-01-11T13:54:51.480Z,3.73
2023-01-11T13:56:07.991Z,3.14
2023-01-11T13:57:17.656Z,2.80
2023-01-11T13:59:47.582Z,2.97
2023-01-11T14:01:09.656Z,2.64
2023-01-11T14:02:38.443Z,3.28
2023-01-11T14:03:54.353Z,2.66
2023-01-11T14:05:16.160Z,3.19
2023-01-11T14:06:44.029Z,2.96
2023-01-11T14:08:00.402Z,2.82
2023-01-11T14:09:12.741Z,3.21
2023-01-11T14:10:22.276Z,3.27
2023-01-11T14:11:45.593Z,3.01
2023-01-11T14:12:57.943Z,2.74
2023-01-11T14:14:33.123Z,3.38
2023-01-11T14:15:42.457Z,3.67
2023-01-11T14:17:00.699Z,3.03
2023-01-11T14:18:25.186Z,2.94
2023-01-11T14:19:40.595Z,3.18
2023-01-11T14:20:56.206Z,2.81
2023-01-11T14:22:21.771Z,2.42
2023-01-11T14:23:40.565Z,2.65
2023-01-11T14:24:47.212Z,3.11
2023-01-11T14:26:17.536Z,2.64
2023-01-11T14:27:40.437Z,2.89
2023-01-11T14:28:52.897Z,2.77
2023-01-11T14:30:02.389Z,2.64
2023-01-11T14:31:18.091Z,2.62
2023-01-11T17:37:58.385Z,4.65
2023-01-11T17:39:03.229Z,4.63
2023-01-11T17:40:10.335Z,4.25
2023-01-11T17:41:33.495Z,4.28
2023-01-11T17:42:55.012Z,4.34
2023-01-11T17:44:17.020Z,4.04
2023-01-11T17:45:23.483Z,4.15
2023-01-11T17:46:26.861Z,4.28
2023-01-11T17:47:30.676Z,4.37
2023-01-11T17:48:34.122Z,3.85
2023-01-11T17:49:38.088Z,3.74
2023-01-11T17:50:56.907Z,3.99
2023-01-11T17:52:18.115Z,4.31
2023-01-11T17:53:26.002Z,4.27
2023-01-11T17:54:29.553Z,4.46
2023-01-11T17:55:33.415Z,4.44
2023-01-11T17:56:38.683Z,4.31
2023-01-11T17:57:41.669Z,4.25
2023-01-11T17:58:44.590Z,4.09
2023-01-11T17:59:47.448Z,4.34
2023-01-11T18:01:09.247Z,4.59
2023-01-11T18:02:14.350Z,4.47
2023-01-11T18:03:18.045Z,4.84
2023-01-11T18:04:22.898Z,4.14
2023-01-11T18:05:28.375Z,4.93
2023-01-11T18:06:39.295Z,4.98
2023-01-11T18:08:48.763Z,3.93
2023-01-11T18:09:55.454Z,3.94
2023-01-11T18:10:58.811Z,4.07
2023-01-11T18:12:14.880Z,4.38
2023-01-11T18:13:21.859Z,4.69
2023-01-11T18:14:30.417Z,4.36
2023-01-11T18:15:36.473Z,4.27
2023-01-11T18:16:48.813Z,3.67
2023-01-11T18:19:07.477Z,4.06
2023-01-11T18:20:17.282Z,4.42
2023-01-11T18:21:29.859Z,3.66
2023-01-11T18:22:40.193Z,3.92
2023-01-11T18:23:43.065Z,3.82
2023-01-11T18:24:49.558Z,3.58
2023-01-11T18:27:18.031Z,4.83
2023-01-11T18:28:27.340Z,4.61
2023-01-11T18:29:41.794Z,3.87
2023-01-11T18:30:53.159Z,3.88
2023-01-11T18:31:56.531Z,3.99
2023-01-11T18:33:01.655Z,4.26
2023-01-11T18:34:04.898Z,3.77
2023-01-11T18:35:18.998Z,4.06
2023-01-11T18:36:26.197Z,3.96
2023-01-11T18:37:29.459Z,4.45
2023-01-11T18:38:34.585Z,3.89
2023-01-11T18:39:37.683Z,4.44
2023-01-11T18:40:40.880Z,4.65
2023-01-11T18:42:02.178Z,3.68
2023-01-11T18:43:05.361Z,3.63
2023-01-11T18:44:10.038Z,3.83